Map

Track Data

SID SEASON NUMBER BASIN SUBBASIN NAME ISO_TIME NATURE LAT LON WMO_WIND WMO_PRES WMO_AGENCY TRACK_TYPE DIST2LAND LANDFALL IFLAG USA_AGENCY USA_ATCF_ID USA_LAT USA_LON USA_RECORD USA_STATUS USA_WIND USA_PRES USA_SSHS USA_R34_NE USA_R34_SE USA_R34_SW USA_R34_NW USA_R50_NE USA_R50_SE USA_R50_SW USA_R50_NW USA_R64_NE USA_R64_SE USA_R64_SW USA_R64_NW USA_POCI USA_ROCI USA_RMW USA_EYE TOKYO_LAT TOKYO_LON TOKYO_GRADE TOKYO_WIND TOKYO_PRES TOKYO_R50_DIR TOKYO_R50_LONG TOKYO_R50_SHORT TOKYO_R30_DIR TOKYO_R30_LONG TOKYO_R30_SHORT TOKYO_LAND CMA_LAT CMA_LON CMA_CAT CMA_WIND CMA_PRES HKO_LAT HKO_LON HKO_CAT HKO_WIND HKO_PRES NEWDELHI_LAT NEWDELHI_LON NEWDELHI_GRADE NEWDELHI_WIND NEWDELHI_PRES NEWDELHI_CI NEWDELHI_DP NEWDELHI_POCI REUNION_LAT REUNION_LON REUNION_TYPE REUNION_WIND REUNION_PRES REUNION_TNUM REUNION_CI REUNION_RMW REUNION_R34_NE REUNION_R34_SE REUNION_R34_SW REUNION_R34_NW REUNION_R50_NE REUNION_R50_SE REUNION_R50_SW REUNION_R50_NW REUNION_R64_NE REUNION_R64_SE REUNION_R64_SW REUNION_R64_NW BOM_LAT BOM_LON BOM_TYPE BOM_WIND BOM_PRES BOM_TNUM BOM_CI BOM_RMW BOM_R34_NE BOM_R34_SE BOM_R34_SW BOM_R34_NW BOM_R50_NE BOM_R50_SE BOM_R50_SW BOM_R50_NW BOM_R64_NE BOM_R64_SE BOM_R64_SW BOM_R64_NW BOM_ROCI BOM_POCI BOM_EYE BOM_POS_METHOD BOM_PRES_METHOD NADI_LAT NADI_LON NADI_CAT NADI_WIND NADI_PRES WELLINGTON_LAT WELLINGTON_LON WELLINGTON_WIND WELLINGTON_PRES DS824_LAT DS824_LON DS824_STAGE DS824_WIND DS824_PRES TD9636_LAT TD9636_LON TD9636_STAGE TD9636_WIND TD9636_PRES TD9635_LAT TD9635_LON TD9635_WIND TD9635_PRES TD9635_ROCI NEUMANN_LAT NEUMANN_LON NEUMANN_CLASS NEUMANN_WIND NEUMANN_PRES MLC_LAT MLC_LON MLC_CLASS MLC_WIND MLC_PRES USA_GUST BOM_GUST BOM_GUST_PER REUNION_GUST REUNION_GUST_PER USA_SEAHGT USA_SEARAD_NE USA_SEARAD_SE USA_SEARAD_SW USA_SEARAD_NW STORM_SPEED STORM_DIR
1950226N26124 1950 61 WP MM NOT_NAMED 1950-08-13 18:00:00 TS 25.8000 123.900 main 210 210 __O___________ -1 25.8000 123.900 0 1002 13 88
1950226N26124 1950 61 WP MM NOT_NAMED 1950-08-13 21:00:00 TS 25.8205 124.640 main 275 275 __P___________ -1 25.8205 124.640 0 1001 14 86
1950226N26124 1950 61 WP MM NOT_NAMED 1950-08-14 00:00:00 TS 25.9000 125.400 main 355 355 __O___________ -1 25.9000 125.400 0 1000 14 79
1950226N26124 1950 61 WP MM NOT_NAMED 1950-08-14 03:00:00 TS 26.0775 126.180 main 438 438 __P___________ -1 26.0775 126.180 0 1000 14 73
1950226N26124 1950 61 WP MM NOT_NAMED 1950-08-14 06:00:00 TS 26.3000 126.900 main 511 511 __O___________ -1 26.3000 126.900 0 1000 13 69
1950226N26124 1950 61 WP MM NOT_NAMED 1950-08-14 09:00:00 TS 26.5296 127.495 main 575 545 __P___________ -1 26.5296 127.495 0 1000 11 68
1950226N26124 1950 61 WP MM NOT_NAMED 1950-08-14 12:00:00 TS 26.7000 128.000 main 545 519 __O___________ -1 26.7000 128.000 0 1000 9 76
1950226N26124 1950 61 WP MM NOT_NAMED 1950-08-14 15:00:00 TS 26.7523 128.473 main 515 510 __P___________ -1 26.7523 128.473 0 999 8 90
1950226N26124 1950 61 WP MM NOT_NAMED 1950-08-14 18:00:00 TS 26.7000 128.900 main 510 507 __O___________ -1 26.7000 128.900 1 29 998 8 105
1950226N26124 1950 61 WP MM NOT_NAMED 1950-08-14 21:00:00 TS 26.5499 129.323 main 520 515 __P___________ -1 26.5499 129.323 1 29 998 8 113
1950226N26124 1950 61 WP MM NOT_NAMED 1950-08-15 00:00:00 TS 26.4000 129.700 main 522 518 __O___________ -1 26.4000 129.700 1 29 998 7 106
1950226N26124 1950 61 WP MM NOT_NAMED 1950-08-15 03:00:00 TS 26.3699 130.022 main 518 514 __P___________ -1 26.3699 130.022 1 29 998 5 90
1950226N26124 1950 61 WP MM NOT_NAMED 1950-08-15 06:00:00 TS 26.4000 130.300 main 514 513 __O___________ -1 26.4000 130.300 1 29 998 5 82
1950226N26124 1950 61 WP MM NOT_NAMED 1950-08-15 09:00:00 TS 26.4349 130.550 main 513 502 __P___________ -1 26.4349 130.550 1 29 998 5 77
1950226N26124 1950 61 WP MM NOT_NAMED 1950-08-15 12:00:00 TS 26.5000 130.800 main 502 492 __O___________ -1 26.5000 130.800 1 29 998 5 73
1950226N26124 1950 61 WP MM NOT_NAMED 1950-08-15 15:00:00 TS 26.5851 131.115 main 492 483 __P___________ -1 26.5851 131.115 1 33 997 6 70
1950226N26124 1950 61 WP MM NOT_NAMED 1950-08-15 18:00:00 TS 26.7000 131.400 main 484 475 __O___________ -1 26.7000 131.400 2 38 997 5 61
1950226N26124 1950 61 WP MM NOT_NAMED 1950-08-15 21:00:00 TS 26.8274 131.602 main 476 456 __P___________ -1 26.8274 131.602 2 38 997 4 42
1950226N26124 1950 61 WP MM NOT_NAMED 1950-08-16 00:00:00 TS 27.0000 131.700 main 456 435 __O___________ -1 27.0000 131.700 2 38 997 5 16
1950226N26124 1950 61 WP MM NOT_NAMED 1950-08-16 03:00:00 TS 27.2647 131.740 main 424 400 __P___________ -1 27.2647 131.740 2 43 995 5 350
1950226N26124 1950 61 WP MM NOT_NAMED 1950-08-16 06:00:00 TS 27.5000 131.600 main 400 382 __O___________ -1 27.5000 131.600 3 48 994 6 304
1950226N26124 1950 61 WP MM NOT_NAMED 1950-08-16 09:00:00 TS 27.5954 131.195 main 382 379 __P___________ -1 27.5954 131.195 3 48 994 8 277
1950226N26124 1950 61 WP MM NOT_NAMED 1950-08-16 12:00:00 TS 27.6000 130.700 main 379 379 __O___________ -1 27.6000 130.700 3 48 994 8 270
1950226N26124 1950 61 WP MM NOT_NAMED 1950-08-16 15:00:00 TS 27.5949 130.320 main 381 381 __P___________ -1 27.5949 130.320 3 53 993 6 261
1950226N26124 1950 61 WP MM NOT_NAMED 1950-08-16 18:00:00 TS 27.5000 130.000 main 396 396 __O___________ -1 27.5000 130.000 3 58 992 7 241
1950226N26124 1950 61 WP MM NOT_NAMED 1950-08-16 21:00:00 TS 27.2650 129.659 main 424 424 __P___________ -1 27.2650 129.659 3 58 993 7 222
1950226N26124 1950 61 WP MM NOT_NAMED 1950-08-17 00:00:00 TS 27.0000 129.500 main 461 461 __O___________ -1 27.0000 129.500 3 58 994 5 0
1950226N26124 1950 61 WP MM NOT_NAMED 1950-08-17 03:00:00 TS 26.8048 129.646 main 480 478 __P___________ -1 26.8048 129.646 3 58 994 5 124
1950226N26124 1950 61 WP MM NOT_NAMED 1950-08-17 06:00:00 TS 26.7000 130.000 main 484 480 __O___________ -1 26.7000 130.000 3 58 994 7 98
1950226N26124 1950 61 WP MM NOT_NAMED 1950-08-17 09:00:00 TS 26.7050 130.412 main 480 468 __P___________ -1 26.7050 130.412 3 58 994 8 83
1950226N26124 1950 61 WP MM NOT_NAMED 1950-08-17 12:00:00 TS 26.8000 130.900 main 469 459 __O___________ -1 26.8000 130.900 3 58 994 9 76
1950226N26124 1950 61 WP MM NOT_NAMED 1950-08-17 15:00:00 TS 26.9275 131.400 main 462 448 __P___________ -1 26.9275 131.400 3 53 994 9 71
1950226N26124 1950 61 WP MM NOT_NAMED 1950-08-17 18:00:00 TS 27.1000 131.900 main 450 444 __O___________ -1 27.1000 131.900 3 48 994 10 69
1950226N26124 1950 61 WP MM NOT_NAMED 1950-08-17 21:00:00 TS 27.2776 132.402 main 444 436 __P___________ -1 27.2776 132.402 3 48 994 9 63
1950226N26124 1950 61 WP MM NOT_NAMED 1950-08-18 00:00:00 TS 27.5000 132.800 main 440 420 __O___________ -1 27.5000 132.800 3 48 994 7 47
1950226N26124 1950 61 WP MM NOT_NAMED 1950-08-18 03:00:00 TS 27.7848 133.010 main 420 398 __P___________ -1 27.7848 133.010 3 48 994 7 24
1950226N26124 1950 61 WP MM NOT_NAMED 1950-08-18 06:00:00 TS 28.1000 133.100 main 398 376 __O___________ -1 28.1000 133.100 3 48 994 6 13
1950226N26124 1950 61 WP MM NOT_NAMED 1950-08-18 09:00:00 TS 28.4000 133.173 main 376 347 __P___________ -1 28.4000 133.173 3 48 993 6 8
1950226N26124 1950 61 WP MM NOT_NAMED 1950-08-18 12:00:00 TS 28.7000 133.200 main 347 318 __O___________ -1 28.7000 133.200 3 48 992 6 5
1950226N26124 1950 61 WP MM NOT_NAMED 1950-08-18 15:00:00 TS 28.9850 133.208 main 318 290 __P___________ -1 28.9850 133.208 3 48 992 6 1
1950226N26124 1950 61 WP MM NOT_NAMED 1950-08-18 18:00:00 TS 29.3000 133.200 main 290 264 __O___________ -1 29.3000 133.200 3 48 992 7 0
1950226N26124 1950 61 WP MM NOT_NAMED 1950-08-18 21:00:00 TS 29.6625 133.200 main 256 224 __P___________ -1 29.6625 133.200 3 53 991 8 1
1950226N26124 1950 61 WP MM NOT_NAMED 1950-08-19 00:00:00 TS 30.1000 133.200 main 224 193 __O___________ -1 30.1000 133.200 3 58 990 10 359
1950226N26124 1950 61 WP MM NOT_NAMED 1950-08-19 03:00:00 TS 30.6200 133.193 main 193 168 __P___________ -1 30.6200 133.193 3 58 990 11 0
1950226N26124 1950 61 WP MM NOT_NAMED 1950-08-19 06:00:00 TS 31.2000 133.200 main 168 102 __O___________ -1 31.2000 133.200 3 58 990 12 2
1950226N26124 1950 61 WP MM NOT_NAMED 1950-08-19 09:00:00 TS 31.8075 133.242 main 102 43 __P___________ -1 31.8075 133.242 3 53 991 12 4
1950226N26124 1950 61 WP MM NOT_NAMED 1950-08-19 12:00:00 TS 32.4000 133.300 main 43 27 __O___________ -1 32.4000 133.300 3 48 992 11 4
1950226N26124 1950 61 WP MM NOT_NAMED 1950-08-19 15:00:00 TS 32.8925 133.335 main 27 0 __P___________ -1 32.8925 133.335 3 48 993 10 5
1950226N26124 1950 61 WP MM NOT_NAMED 1950-08-19 18:00:00 TS 33.4000 133.400 main 0 0 __O___________ -1 33.4000 133.400 3 48 994 11 6
1950226N26124 1950 61 WP MM NOT_NAMED 1950-08-19 21:00:00 TS 33.9895 133.462 main 0 0 __P___________ -1 33.9895 133.462 3 43 995 13 11
1950226N26124 1950 61 WP MM NOT_NAMED 1950-08-20 00:00:00 TS 34.7000 133.700 main 0 0 __O___________ -1 34.7000 133.700 2 38 996 17 22
1950226N26124 1950 61 WP MM NOT_NAMED 1950-08-20 03:00:00 TS 35.6075 134.243 main 11 11 __P___________ -1 35.6075 134.243 2 38 996 21 30
1950226N26124 1950 61 WP MM NOT_NAMED 1950-08-20 06:00:00 TS 36.5000 135.000 main 89 79 __O___________ -1 36.5000 135.000 2 38 996 20 39
1950226N26124 1950 61 WP MM NOT_NAMED 1950-08-20 09:00:00 TS 37.1829 135.843 main 79 28 __P___________ -1 37.1829 135.843 2 38 996 18 48
1950226N26124 1950 61 WP MM NOT_NAMED 1950-08-20 12:00:00 TS 37.7000 136.700 main 34 34 __O___________ -1 37.7000 136.700 2 38 996 15 53
1950226N26124 1950 61 WP MM NOT_NAMED 1950-08-20 15:00:00 TS 38.0932 137.380 main 79 79 __P___________ -1 38.0932 137.380 2 38 996 13 58
1950226N26124 1950 61 WP MM NOT_NAMED 1950-08-20 18:00:00 TS 38.4000 138.100 main 90 53 __O___________ -1 38.4000 138.100 2 38 996 14 64
1950226N26124 1950 61 WP MM NOT_NAMED 1950-08-20 21:00:00 TS 38.7054 138.982 main 44 0 __P___________ -1 38.7054 138.982 2 38 996 17 69
1950226N26124 1950 61 WP MM NOT_NAMED 1950-08-21 00:00:00 TS 39.0000 140.100 main 0 0 __O___________ -1 39.0000 140.100 2 38 996 22 74
1950226N26124 1950 61 WP MM NOT_NAMED 1950-08-21 03:00:00 TS 39.3198 141.658 main 0 0 __P___________ -1 39.3198 141.658 2 38 996 24 76
1950226N26124 1950 61 WP MM NOT_NAMED 1950-08-21 06:00:00 TS 39.6000 143.100 main 86 86 __O___________ -1 39.6000 143.100 2 38 996 18 74
1950226N26124 1950 61 WP MM NOT_NAMED 1950-08-21 09:00:00 TS 39.8043 143.867 main 157 157 __P___________ -1 39.8043 143.867 2 38 996 10 67
1950226N26124 1950 61 WP MM NOT_NAMED 1950-08-21 12:00:00 TS 40.0000 144.300 main 195 195 __O___________ -1 40.0000 144.300 2 38 996 8 58
1950226N26124 1950 61 WP MM NOT_NAMED 1950-08-21 15:00:00 TS 40.2043 144.716 main 226 219 __P___________ -1 40.2043 144.716 2 38 996 8 51
1950226N26124 1950 61 WP MM NOT_NAMED 1950-08-21 18:00:00 TS 40.5000 145.100 main 222 219 __O___________ -1 40.5000 145.100 2 38 996 10 40
1950226N26124 1950 61 WP MM NOT_NAMED 1950-08-21 21:00:00 TS 40.9697 145.563 main 220 188 __P___________ -1 40.9697 145.563 2 38 996 13 37
1950226N26124 1950 61 WP MM NOT_NAMED 1950-08-22 00:00:00 TS 41.5000 146.100 main 188 165 __O___________ -1 41.5000 146.100 2 38 996 13 40
1950226N26124 1950 61 WP MM NOT_NAMED 1950-08-22 03:00:00 TS 41.9868 146.690 main 165 159 __P___________ -1 41.9868 146.690 2 33 997 13 47
1950226N26124 1950 61 WP MM NOT_NAMED 1950-08-22 06:00:00 TS 42.4000 147.400 main 177 177 __O___________ -1 42.4000 147.400 1 29 998 13 60
1950226N26124 1950 61 WP MM NOT_NAMED 1950-08-22 09:00:00 TS 42.6572 148.250 main 225 225 __P___________ -1 42.6572 148.250 1 29 999 14 69
1950226N26124 1950 61 WP MM NOT_NAMED 1950-08-22 12:00:00 ET 42.9000 149.200 main 246 246 __O___________ -1 42.9000 149.200 9 29 1000 16 67
1950226N26124 1950 61 WP MM NOT_NAMED 1950-08-22 15:00:00 ET 43.2857 150.236 main 248 238 __P___________ -1 43.2857 150.236 9 1000 17 61
1950226N26124 1950 61 WP MM NOT_NAMED 1950-08-22 18:00:00 ET 43.7000 151.200 main 241 236 __O___________ -1 43.7000 151.200 9 1000 14 57
1950226N26124 1950 61 WP MM NOT_NAMED 1950-08-22 21:00:00 ET 44.0633 151.889 main 240 239 __P___________ -1 44.0633 151.889 9 1001 12 53
1950226N26124 1950 61 WP MM NOT_NAMED 1950-08-23 00:00:00 ET 44.4000 152.500 main 247 244 __O___________ -1 44.4000 152.500 9 1002 12 56
1950226N26124 1950 61 WP MM NOT_NAMED 1950-08-23 03:00:00 ET 44.7224 153.243 main 267 267 __P___________ -1 44.7224 153.243 9 1002 12 61
1950226N26124 1950 61 WP MM NOT_NAMED 1950-08-23 06:00:00 ET 45.0000 154.000 main 304 304 __O___________ -1 45.0000 154.000 9 1002 11 65
1950226N26124 1950 61 WP MM NOT_NAMED 1950-08-23 09:00:00 ET 45.1991 154.694 main 347 347 __P___________ -1 45.1991 154.694 9 1002 11 68
1950226N26124 1950 61 WP MM NOT_NAMED 1950-08-23 12:00:00 ET 45.4000 155.400 main 394 394 __O___________ -1 45.4000 155.400 9 1002 11 68
1950226N26124 1950 61 WP MM NOT_NAMED 1950-08-23 15:00:00 ET 45.5995 156.088 main 443 443 __P___________ -1 45.5995 156.088 9 1002 13 62
1950226N26124 1950 61 WP MM NOT_NAMED 1950-08-23 18:00:00 ET 46.0000 157.000 main 459 423 __O___________ -1 46.0000 157.000 9 1002 19 54
1950226N26124 1950 61 WP MM NOT_NAMED 1950-08-23 21:00:00 ET 46.7222 158.346 main 423 402 __P___________ -1 46.7222 158.346 9 1002 27 50
1950226N26124 1950 61 WP MM NOT_NAMED 1950-08-24 00:00:00 ET 47.7000 160.000 main 407 404 __O___________ -1 47.7000 160.000 9 1002 31 48
1950226N26124 1950 61 WP MM NOT_NAMED 1950-08-24 03:00:00 ET 48.8229 161.797 main 415 408 __P___________ -1 48.8229 161.797 9 1003 33 47
1950226N26124 1950 61 WP MM NOT_NAMED 1950-08-24 06:00:00 ET 50.0000 163.700 main 423 __O___________ -1 50.0000 163.700 9 1004 34 46

Digital Typhoon Data and Search

About IBTrACS Database

This database is a web-friendly format of International Best Track Archive for Climate Stewardship (IBTrACS), a global best track data archive curated by NOAA dating back to 1842.

Updated: 2021-10-27